sensor_id;sensor_type;location;lat;lon;timestamp;P1;durP1;ratioP1;P2;durP2;ratioP2
70049;SDS011;57391;51.306;22.680;2023-02-15T00:00:07;28.10;;;14.20;;
70049;SDS011;57391;51.306;22.680;2023-02-15T00:02:57;30.30;;;15.10;;
70049;SDS011;57391;51.306;22.680;2023-02-15T00:05:24;29.10;;;14.30;;
70049;SDS011;57391;51.306;22.680;2023-02-15T00:07:51;33.20;;;14.80;;
70049;SDS011;57391;51.306;22.680;2023-02-15T00:10:18;30.60;;;14.30;;
70049;SDS011;57391;51.306;22.680;2023-02-15T00:12:45;35.70;;;15.10;;
70049;SDS011;57391;51.306;22.680;2023-02-15T00:15:12;33.10;;;15.00;;
70049;SDS011;57391;51.306;22.680;2023-02-15T00:17:39;31.40;;;13.90;;
70049;SDS011;57391;51.306;22.680;2023-02-15T00:20:07;32.10;;;14.40;;
70049;SDS011;57391;51.306;22.680;2023-02-15T00:22:34;34.10;;;15.30;;
70049;SDS011;57391;51.306;22.680;2023-02-15T00:25:02;32.70;;;15.00;;
70049;SDS011;57391;51.306;22.680;2023-02-15T00:27:30;31.30;;;14.90;;
70049;SDS011;57391;51.306;22.680;2023-02-15T00:29:58;30.80;;;14.50;;
70049;SDS011;57391;51.306;22.680;2023-02-15T00:32:25;36.10;;;15.60;;
70049;SDS011;57391;51.306;22.680;2023-02-15T00:34:52;32.40;;;15.20;;
70049;SDS011;57391;51.306;22.680;2023-02-15T00:37:19;32.60;;;15.60;;
70049;SDS011;57391;51.306;22.680;2023-02-15T00:39:47;31.70;;;14.70;;
70049;SDS011;57391;51.306;22.680;2023-02-15T00:42:17;34.30;;;15.50;;
70049;SDS011;57391;51.306;22.680;2023-02-15T00:44:44;33.90;;;14.90;;
70049;SDS011;57391;51.306;22.680;2023-02-15T00:47:11;34.00;;;14.50;;
70049;SDS011;57391;51.306;22.680;2023-02-15T00:49:38;35.20;;;15.30;;
70049;SDS011;57391;51.306;22.680;2023-02-15T00:52:05;35.10;;;15.70;;
70049;SDS011;57391;51.306;22.680;2023-02-15T00:54:32;30.90;;;15.40;;
70049;SDS011;57391;51.306;22.680;2023-02-15T00:57:01;33.30;;;14.20;;
70049;SDS011;57391;51.306;22.680;2023-02-15T00:59:28;32.40;;;15.80;;
70049;SDS011;57391;51.306;22.680;2023-02-15T01:01:55;36.10;;;16.10;;
70049;SDS011;57391;51.306;22.680;2023-02-15T01:04:22;34.00;;;15.20;;
70049;SDS011;57391;51.306;22.680;2023-02-15T01:06:50;36.90;;;15.90;;
70049;SDS011;57391;51.306;22.680;2023-02-15T01:09:17;36.40;;;16.30;;
70049;SDS011;57391;51.306;22.680;2023-02-15T01:11:44;34.60;;;15.80;;
70049;SDS011;57391;51.306;22.680;2023-02-15T01:14:11;34.60;;;14.80;;
70049;SDS011;57391;51.306;22.680;2023-02-15T01:16:39;35.00;;;16.90;;
70049;SDS011;57391;51.306;22.680;2023-02-15T01:19:06;35.20;;;15.90;;
70049;SDS011;57391;51.306;22.680;2023-02-15T01:21:34;33.90;;;15.80;;
70049;SDS011;57391;51.306;22.680;2023-02-15T01:24:01;34.00;;;15.70;;
70049;SDS011;57391;51.306;22.680;2023-02-15T01:26:29;36.50;;;15.50;;
70049;SDS011;57391;51.306;22.680;2023-02-15T01:28:56;36.50;;;15.30;;
70049;SDS011;57391;51.306;22.680;2023-02-15T01:31:23;33.90;;;15.30;;
70049;SDS011;57391;51.306;22.680;2023-02-15T01:33:50;35.10;;;14.90;;
70049;SDS011;57391;51.306;22.680;2023-02-15T01:36:17;38.20;;;15.80;;
70049;SDS011;57391;51.306;22.680;2023-02-15T01:38:44;37.10;;;16.20;;
70049;SDS011;57391;51.306;22.680;2023-02-15T01:41:12;36.40;;;16.70;;
70049;SDS011;57391;51.306;22.680;2023-02-15T01:43:58;36.70;;;15.90;;
70049;SDS011;57391;51.306;22.680;2023-02-15T01:49:15;38.80;;;15.80;;
70049;SDS011;57391;51.306;22.680;2023-02-15T01:51:47;37.00;;;15.60;;
70049;SDS011;57391;51.306;22.680;2023-02-15T01:54:24;37.60;;;16.30;;
70049;SDS011;57391;51.306;22.680;2023-02-15T01:57:01;34.30;;;15.20;;
70049;SDS011;57391;51.306;22.680;2023-02-15T01:59:32;34.50;;;14.70;;
70049;SDS011;57391;51.306;22.680;2023-02-15T02:02:04;37.40;;;15.30;;
70049;SDS011;57391;51.306;22.680;2023-02-15T02:04:56;38.20;;;15.30;;
70049;SDS011;57391;51.306;22.680;2023-02-15T02:07:27;33.70;;;14.50;;
70049;SDS011;57391;51.306;22.680;2023-02-15T02:10:01;34.40;;;14.80;;
70049;SDS011;57391;51.306;22.680;2023-02-15T02:12:29;31.10;;;13.70;;
70049;SDS011;57391;51.306;22.680;2023-02-15T02:14:57;28.10;;;13.20;;
70049;SDS011;57391;51.306;22.680;2023-02-15T02:34:51;28.10;;;12.40;;
70049;SDS011;57391;51.306;22.680;2023-02-15T02:37:48;33.10;;;14.60;;
70049;SDS011;57391;51.306;22.680;2023-02-15T02:40:34;31.70;;;13.50;;
70049;SDS011;57391;51.306;22.680;2023-02-15T02:43:21;33.40;;;14.30;;
70049;SDS011;57391;51.306;22.680;2023-02-15T02:46:02;32.30;;;14.40;;
70049;SDS011;57391;51.306;22.680;2023-02-15T02:48:38;32.70;;;13.80;;
70049;SDS011;57391;51.306;22.680;2023-02-15T02:51:05;34.60;;;14.40;;
70049;SDS011;57391;51.306;22.680;2023-02-15T02:53:35;35.80;;;15.00;;
70049;SDS011;57391;51.306;22.680;2023-02-15T02:56:07;34.90;;;14.50;;
70049;SDS011;57391;51.306;22.680;2023-02-15T02:58:50;35.00;;;15.10;;
70049;SDS011;57391;51.306;22.680;2023-02-15T03:01:37;35.20;;;14.10;;
70049;SDS011;57391;51.306;22.680;2023-02-15T03:04:15;34.50;;;14.60;;
70049;SDS011;57391;51.306;22.680;2023-02-15T03:07:09;33.90;;;15.30;;
70049;SDS011;57391;51.306;22.680;2023-02-15T03:09:45;36.10;;;15.70;;
70049;SDS011;57391;51.306;22.680;2023-02-15T03:12:28;36.90;;;15.20;;
70049;SDS011;57391;51.306;22.680;2023-02-15T03:15:03;36.20;;;14.90;;
70049;SDS011;57391;51.306;22.680;2023-02-15T03:17:33;37.40;;;16.20;;
70049;SDS011;57391;51.306;22.680;2023-02-15T03:20:08;38.40;;;16.60;;
70049;SDS011;57391;51.306;22.680;2023-02-15T03:22:44;37.10;;;16.50;;
70049;SDS011;57391;51.306;22.680;2023-02-15T03:25:20;41.80;;;16.80;;
70049;SDS011;57391;51.306;22.680;2023-02-15T03:27:59;42.90;;;18.10;;
70049;SDS011;57391;51.306;22.680;2023-02-15T03:30:34;43.00;;;18.00;;
70049;SDS011;57391;51.306;22.680;2023-02-15T03:33:04;38.20;;;17.70;;
70049;SDS011;57391;51.306;22.680;2023-02-15T03:35:40;41.80;;;16.80;;
70049;SDS011;57391;51.306;22.680;2023-02-15T03:38:17;37.40;;;15.90;;
70049;SDS011;57391;51.306;22.680;2023-02-15T03:40:49;31.70;;;13.90;;
70049;SDS011;57391;51.306;22.680;2023-02-15T03:46:49;36.30;;;15.50;;
70049;SDS011;57391;51.306;22.680;2023-02-15T03:49:28;36.40;;;16.20;;
70049;SDS011;57391;51.306;22.680;2023-02-15T03:52:05;28.10;;;12.00;;
70049;SDS011;57391;51.306;22.680;2023-02-15T03:54:36;28.30;;;12.70;;
70049;SDS011;57391;51.306;22.680;2023-02-15T03:57:14;31.30;;;13.50;;
70049;SDS011;57391;51.306;22.680;2023-02-15T04:00:11;29.50;;;12.00;;
70049;SDS011;57391;51.306;22.680;2023-02-15T04:05:43;29.20;;;12.40;;
70049;SDS011;57391;51.306;22.680;2023-02-15T04:08:11;26.50;;;11.00;;
70049;SDS011;57391;51.306;22.680;2023-02-15T04:10:39;25.70;;;12.40;;
70049;SDS011;57391;51.306;22.680;2023-02-15T04:13:31;26.60;;;11.60;;
70049;SDS011;57391;51.306;22.680;2023-02-15T04:15:59;28.60;;;11.80;;
70049;SDS011;57391;51.306;22.680;2023-02-15T04:21:24;25.20;;;11.20;;
70049;SDS011;57391;51.306;22.680;2023-02-15T04:24:12;29.10;;;12.50;;
70049;SDS011;57391;51.306;22.680;2023-02-15T04:26:59;28.80;;;13.00;;
70049;SDS011;57391;51.306;22.680;2023-02-15T04:29:27;31.10;;;12.70;;
70049;SDS011;57391;51.306;22.680;2023-02-15T04:31:56;29.90;;;12.90;;
70049;SDS011;57391;51.306;22.680;2023-02-15T04:34:25;33.60;;;13.60;;
70049;SDS011;57391;51.306;22.680;2023-02-15T04:36:52;34.30;;;13.30;;
70049;SDS011;57391;51.306;22.680;2023-02-15T04:39:19;33.30;;;13.40;;
70049;SDS011;57391;51.306;22.680;2023-02-15T04:41:46;30.70;;;13.60;;
70049;SDS011;57391;51.306;22.680;2023-02-15T04:44:15;30.60;;;13.00;;
70049;SDS011;57391;51.306;22.680;2023-02-15T04:46:42;34.50;;;13.70;;
70049;SDS011;57391;51.306;22.680;2023-02-15T04:49:09;28.30;;;12.40;;
70049;SDS011;57391;51.306;22.680;2023-02-15T04:51:36;31.40;;;13.20;;
70049;SDS011;57391;51.306;22.680;2023-02-15T04:54:03;32.20;;;12.90;;
70049;SDS011;57391;51.306;22.680;2023-02-15T04:56:31;29.40;;;12.90;;
70049;SDS011;57391;51.306;22.680;2023-02-15T04:59:00;29.60;;;12.70;;
70049;SDS011;57391;51.306;22.680;2023-02-15T05:01:27;29.70;;;13.40;;
70049;SDS011;57391;51.306;22.680;2023-02-15T05:03:54;35.60;;;14.40;;
70049;SDS011;57391;51.306;22.680;2023-02-15T05:06:21;33.30;;;14.70;;
70049;SDS011;57391;51.306;22.680;2023-02-15T05:08:47;32.50;;;14.20;;
70049;SDS011;57391;51.306;22.680;2023-02-15T05:11:15;30.10;;;12.90;;
70049;SDS011;57391;51.306;22.680;2023-02-15T05:13:41;30.00;;;13.40;;
70049;SDS011;57391;51.306;22.680;2023-02-15T05:16:08;28.00;;;13.00;;
70049;SDS011;57391;51.306;22.680;2023-02-15T05:18:35;28.90;;;12.20;;
70049;SDS011;57391;51.306;22.680;2023-02-15T05:21:03;28.70;;;12.80;;
70049;SDS011;57391;51.306;22.680;2023-02-15T05:23:30;29.40;;;12.00;;
70049;SDS011;57391;51.306;22.680;2023-02-15T05:25:57;28.90;;;11.50;;
70049;SDS011;57391;51.306;22.680;2023-02-15T05:28:42;27.10;;;11.90;;
70049;SDS011;57391;51.306;22.680;2023-02-15T05:31:17;31.70;;;12.60;;
70049;SDS011;57391;51.306;22.680;2023-02-15T05:33:45;29.70;;;12.30;;
70049;SDS011;57391;51.306;22.680;2023-02-15T05:36:13;31.80;;;13.80;;
70049;SDS011;57391;51.306;22.680;2023-02-15T05:38:40;30.10;;;13.50;;
70049;SDS011;57391;51.306;22.680;2023-02-15T05:41:08;31.40;;;13.90;;
70049;SDS011;57391;51.306;22.680;2023-02-15T05:43:36;34.20;;;14.40;;
70049;SDS011;57391;51.306;22.680;2023-02-15T05:46:03;32.50;;;13.90;;
70049;SDS011;57391;51.306;22.680;2023-02-15T05:48:31;29.20;;;12.10;;
70049;SDS011;57391;51.306;22.680;2023-02-15T05:51:07;28.90;;;11.90;;
70049;SDS011;57391;51.306;22.680;2023-02-15T05:53:38;28.70;;;11.60;;
70049;SDS011;57391;51.306;22.680;2023-02-15T05:56:08;27.80;;;12.90;;
70049;SDS011;57391;51.306;22.680;2023-02-15T05:58:39;25.90;;;11.60;;
70049;SDS011;57391;51.306;22.680;2023-02-15T06:01:14;30.50;;;13.20;;
70049;SDS011;57391;51.306;22.680;2023-02-15T06:03:44;30.90;;;12.30;;
70049;SDS011;57391;51.306;22.680;2023-02-15T06:06:12;27.30;;;12.90;;
70049;SDS011;57391;51.306;22.680;2023-02-15T06:08:40;25.00;;;11.70;;
70049;SDS011;57391;51.306;22.680;2023-02-15T06:11:07;25.60;;;11.50;;
70049;SDS011;57391;51.306;22.680;2023-02-15T06:13:35;26.20;;;11.80;;
70049;SDS011;57391;51.306;22.680;2023-02-15T06:16:03;29.90;;;12.20;;
70049;SDS011;57391;51.306;22.680;2023-02-15T06:18:30;25.60;;;12.20;;
70049;SDS011;57391;51.306;22.680;2023-02-15T06:20:57;25.60;;;12.40;;
70049;SDS011;57391;51.306;22.680;2023-02-15T06:23:24;29.10;;;12.60;;
70049;SDS011;57391;51.306;22.680;2023-02-15T06:25:50;31.80;;;13.10;;
70049;SDS011;57391;51.306;22.680;2023-02-15T06:28:18;29.70;;;13.00;;
70049;SDS011;57391;51.306;22.680;2023-02-15T06:30:44;31.70;;;14.10;;
70049;SDS011;57391;51.306;22.680;2023-02-15T06:33:12;36.20;;;14.10;;
70049;SDS011;57391;51.306;22.680;2023-02-15T06:35:39;33.80;;;14.40;;
70049;SDS011;57391;51.306;22.680;2023-02-15T06:38:06;30.20;;;13.90;;
70049;SDS011;57391;51.306;22.680;2023-02-15T06:40:33;34.00;;;14.60;;
70049;SDS011;57391;51.306;22.680;2023-02-15T06:43:00;36.00;;;15.20;;
70049;SDS011;57391;51.306;22.680;2023-02-15T06:45:27;30.60;;;14.70;;
70049;SDS011;57391;51.306;22.680;2023-02-15T06:47:54;31.60;;;14.30;;
70049;SDS011;57391;51.306;22.680;2023-02-15T06:50:22;31.10;;;14.90;;
70049;SDS011;57391;51.306;22.680;2023-02-15T06:52:49;31.70;;;14.20;;
70049;SDS011;57391;51.306;22.680;2023-02-15T06:55:23;30.80;;;15.10;;
70049;SDS011;57391;51.306;22.680;2023-02-15T06:57:49;31.10;;;13.70;;
70049;SDS011;57391;51.306;22.680;2023-02-15T07:00:17;28.80;;;14.20;;
70049;SDS011;57391;51.306;22.680;2023-02-15T07:02:45;28.50;;;12.90;;
70049;SDS011;57391;51.306;22.680;2023-02-15T07:05:12;27.60;;;13.00;;
70049;SDS011;57391;51.306;22.680;2023-02-15T07:07:39;28.40;;;13.00;;
70049;SDS011;57391;51.306;22.680;2023-02-15T07:10:06;29.40;;;12.90;;
70049;SDS011;57391;51.306;22.680;2023-02-15T07:12:34;27.10;;;12.20;;
70049;SDS011;57391;51.306;22.680;2023-02-15T07:15:15;28.80;;;12.60;;
70049;SDS011;57391;51.306;22.680;2023-02-15T07:17:44;26.20;;;12.20;;
70049;SDS011;57391;51.306;22.680;2023-02-15T07:20:17;28.30;;;13.60;;
70049;SDS011;57391;51.306;22.680;2023-02-15T07:22:46;26.20;;;12.00;;
70049;SDS011;57391;51.306;22.680;2023-02-15T07:25:13;24.00;;;11.00;;
70049;SDS011;57391;51.306;22.680;2023-02-15T07:27:41;25.10;;;11.90;;
70049;SDS011;57391;51.306;22.680;2023-02-15T07:30:12;28.00;;;12.20;;
70049;SDS011;57391;51.306;22.680;2023-02-15T07:32:41;26.20;;;11.30;;
70049;SDS011;57391;51.306;22.680;2023-02-15T07:35:27;23.90;;;11.00;;
70049;SDS011;57391;51.306;22.680;2023-02-15T07:37:54;24.20;;;11.20;;
70049;SDS011;57391;51.306;22.680;2023-02-15T07:40:21;25.40;;;11.60;;
70049;SDS011;57391;51.306;22.680;2023-02-15T07:42:50;27.90;;;12.60;;
70049;SDS011;57391;51.306;22.680;2023-02-15T07:45:21;29.10;;;12.10;;
70049;SDS011;57391;51.306;22.680;2023-02-15T07:47:48;28.20;;;12.70;;
70049;SDS011;57391;51.306;22.680;2023-02-15T07:50:15;29.70;;;13.30;;
70049;SDS011;57391;51.306;22.680;2023-02-15T07:52:43;31.40;;;12.90;;
70049;SDS011;57391;51.306;22.680;2023-02-15T07:55:10;27.70;;;12.80;;
70049;SDS011;57391;51.306;22.680;2023-02-15T07:57:43;25.40;;;12.10;;
70049;SDS011;57391;51.306;22.680;2023-02-15T08:00:13;21.90;;;10.20;;
70049;SDS011;57391;51.306;22.680;2023-02-15T08:02:41;19.00;;;8.30;;
70049;SDS011;57391;51.306;22.680;2023-02-15T08:05:08;18.60;;;9.10;;
70049;SDS011;57391;51.306;22.680;2023-02-15T08:07:35;22.70;;;9.50;;
70049;SDS011;57391;51.306;22.680;2023-02-15T08:10:02;22.80;;;10.00;;
70049;SDS011;57391;51.306;22.680;2023-02-15T08:12:29;25.10;;;10.30;;
70049;SDS011;57391;51.306;22.680;2023-02-15T08:14:56;22.60;;;10.30;;
70049;SDS011;57391;51.306;22.680;2023-02-15T08:17:23;22.00;;;9.30;;
70049;SDS011;57391;51.306;22.680;2023-02-15T08:19:50;23.40;;;10.50;;
70049;SDS011;57391;51.306;22.680;2023-02-15T08:22:17;22.20;;;10.50;;
70049;SDS011;57391;51.306;22.680;2023-02-15T08:24:44;21.40;;;8.90;;
70049;SDS011;57391;51.306;22.680;2023-02-15T08:27:11;20.60;;;9.40;;
70049;SDS011;57391;51.306;22.680;2023-02-15T08:29:38;21.50;;;9.40;;
70049;SDS011;57391;51.306;22.680;2023-02-15T08:32:07;19.50;;;10.20;;
70049;SDS011;57391;51.306;22.680;2023-02-15T08:34:39;21.80;;;10.20;;
70049;SDS011;57391;51.306;22.680;2023-02-15T08:37:08;20.50;;;9.70;;
70049;SDS011;57391;51.306;22.680;2023-02-15T08:39:36;24.70;;;11.40;;
70049;SDS011;57391;51.306;22.680;2023-02-15T08:42:03;21.40;;;9.70;;
70049;SDS011;57391;51.306;22.680;2023-02-15T08:44:30;20.10;;;9.90;;
70049;SDS011;57391;51.306;22.680;2023-02-15T08:46:57;20.90;;;10.20;;
70049;SDS011;57391;51.306;22.680;2023-02-15T08:49:30;17.80;;;8.30;;
70049;SDS011;57391;51.306;22.680;2023-02-15T08:51:57;25.20;;;9.30;;
70049;SDS011;57391;51.306;22.680;2023-02-15T08:54:24;17.90;;;9.10;;
70049;SDS011;57391;51.306;22.680;2023-02-15T08:56:51;22.30;;;10.10;;
70049;SDS011;57391;51.306;22.680;2023-02-15T08:59:20;22.30;;;9.90;;
70049;SDS011;57391;51.306;22.680;2023-02-15T09:01:49;20.90;;;8.70;;
70049;SDS011;57391;51.306;22.680;2023-02-15T09:04:19;19.80;;;8.80;;
70049;SDS011;57391;51.306;22.680;2023-02-15T09:06:48;17.90;;;9.30;;
70049;SDS011;57391;51.306;22.680;2023-02-15T09:09:16;21.70;;;9.60;;
70049;SDS011;57391;51.306;22.680;2023-02-15T09:11:46;22.20;;;10.10;;
70049;SDS011;57391;51.306;22.680;2023-02-15T09:14:19;21.50;;;9.40;;
70049;SDS011;57391;51.306;22.680;2023-02-15T09:16:48;18.60;;;9.80;;
70049;SDS011;57391;51.306;22.680;2023-02-15T09:19:19;21.40;;;10.30;;
70049;SDS011;57391;51.306;22.680;2023-02-15T09:21:47;19.50;;;9.10;;
70049;SDS011;57391;51.306;22.680;2023-02-15T09:24:16;20.40;;;9.10;;
70049;SDS011;57391;51.306;22.680;2023-02-15T09:26:46;21.20;;;10.40;;
70049;SDS011;57391;51.306;22.680;2023-02-15T09:29:16;21.90;;;10.20;;
70049;SDS011;57391;51.306;22.680;2023-02-15T09:31:46;21.10;;;10.40;;
70049;SDS011;57391;51.306;22.680;2023-02-15T09:34:18;20.60;;;10.20;;
70049;SDS011;57391;51.306;22.680;2023-02-15T09:36:48;23.40;;;11.80;;
70049;SDS011;57391;51.306;22.680;2023-02-15T09:45:01;30.30;;;13.80;;
70049;SDS011;57391;51.306;22.680;2023-02-15T09:54:33;30.50;;;14.20;;
70049;SDS011;57391;51.306;22.680;2023-02-15T10:17:20;30.60;;;13.40;;
70049;SDS011;57391;51.306;22.680;2023-02-15T10:23:12;29.30;;;14.20;;
70049;SDS011;57391;51.306;22.680;2023-02-15T10:26:21;34.30;;;14.70;;
70049;SDS011;57391;51.306;22.680;2023-02-15T10:29:01;32.10;;;14.20;;
70049;SDS011;57391;51.306;22.680;2023-02-15T10:31:47;32.00;;;14.60;;
70049;SDS011;57391;51.306;22.680;2023-02-15T10:34:30;32.50;;;15.00;;
70049;SDS011;57391;51.306;22.680;2023-02-15T10:45:40;31.10;;;13.60;;
70049;SDS011;57391;51.306;22.680;2023-02-15T10:54:44;33.30;;;15.00;;
70049;SDS011;57391;51.306;22.680;2023-02-15T11:01:16;32.00;;;13.60;;
70049;SDS011;57391;51.306;22.680;2023-02-15T11:06:59;31.10;;;13.40;;
70049;SDS011;57391;51.306;22.680;2023-02-15T11:09:42;30.60;;;14.20;;
70049;SDS011;57391;51.306;22.680;2023-02-15T11:12:18;31.80;;;14.20;;
70049;SDS011;57391;51.306;22.680;2023-02-15T11:14:58;32.50;;;14.30;;
70049;SDS011;57391;51.306;22.680;2023-02-15T11:17:36;27.80;;;12.00;;
70049;SDS011;57391;51.306;22.680;2023-02-15T11:22:55;31.10;;;14.00;;
70049;SDS011;57391;51.306;22.680;2023-02-15T11:25:30;32.70;;;14.80;;
70049;SDS011;57391;51.306;22.680;2023-02-15T11:28:03;32.40;;;14.40;;
70049;SDS011;57391;51.306;22.680;2023-02-15T11:30:47;32.00;;;14.60;;
70049;SDS011;57391;51.306;22.680;2023-02-15T11:33:26;33.70;;;14.50;;
70049;SDS011;57391;51.306;22.680;2023-02-15T11:36:05;30.20;;;14.60;;
70049;SDS011;57391;51.306;22.680;2023-02-15T11:38:36;35.90;;;15.20;;
70049;SDS011;57391;51.306;22.680;2023-02-15T11:41:09;31.50;;;14.60;;
70049;SDS011;57391;51.306;22.680;2023-02-15T11:43:54;30.80;;;13.40;;
70049;SDS011;57391;51.306;22.680;2023-02-15T11:46:27;29.90;;;13.70;;
70049;SDS011;57391;51.306;22.680;2023-02-15T11:48:55;29.70;;;13.60;;
70049;SDS011;57391;51.306;22.680;2023-02-15T11:51:22;27.30;;;13.50;;
70049;SDS011;57391;51.306;22.680;2023-02-15T11:53:51;36.10;;;14.20;;
70049;SDS011;57391;51.306;22.680;2023-02-15T11:56:23;27.70;;;13.50;;
70049;SDS011;57391;51.306;22.680;2023-02-15T11:59:10;29.60;;;13.60;;
70049;SDS011;57391;51.306;22.680;2023-02-15T12:01:46;25.40;;;13.10;;
70049;SDS011;57391;51.306;22.680;2023-02-15T12:04:26;31.50;;;13.30;;
70049;SDS011;57391;51.306;22.680;2023-02-15T12:09:52;27.80;;;12.70;;
70049;SDS011;57391;51.306;22.680;2023-02-15T12:12:34;28.70;;;13.60;;
70049;SDS011;57391;51.306;22.680;2023-02-15T12:15:08;33.80;;;15.10;;
70049;SDS011;57391;51.306;22.680;2023-02-15T12:17:49;27.40;;;13.00;;
70049;SDS011;57391;51.306;22.680;2023-02-15T12:22:51;30.20;;;14.30;;
70049;SDS011;57391;51.306;22.680;2023-02-15T12:28:37;26.90;;;13.00;;
70049;SDS011;57391;51.306;22.680;2023-02-15T12:33:56;24.50;;;12.30;;
70049;SDS011;57391;51.306;22.680;2023-02-15T12:36:44;23.60;;;11.70;;
70049;SDS011;57391;51.306;22.680;2023-02-15T12:39:23;26.20;;;11.90;;
70049;SDS011;57391;51.306;22.680;2023-02-15T12:44:23;25.00;;;11.90;;
70049;SDS011;57391;51.306;22.680;2023-02-15T12:47:00;23.50;;;11.40;;
70049;SDS011;57391;51.306;22.680;2023-02-15T12:49:37;24.90;;;11.90;;
70049;SDS011;57391;51.306;22.680;2023-02-15T12:52:24;24.60;;;11.80;;
70049;SDS011;57391;51.306;22.680;2023-02-15T12:54:52;22.30;;;11.30;;
70049;SDS011;57391;51.306;22.680;2023-02-15T13:02:40;26.00;;;12.30;;
70049;SDS011;57391;51.306;22.680;2023-02-15T13:05:26;25.60;;;11.90;;
70049;SDS011;57391;51.306;22.680;2023-02-15T13:08:01;24.70;;;12.80;;
70049;SDS011;57391;51.306;22.680;2023-02-15T13:10:33;24.40;;;12.50;;
70049;SDS011;57391;51.306;22.680;2023-02-15T13:13:17;23.90;;;11.70;;
70049;SDS011;57391;51.306;22.680;2023-02-15T13:15:51;23.90;;;11.70;;
70049;SDS011;57391;51.306;22.680;2023-02-15T13:18:29;22.50;;;12.20;;
70049;SDS011;57391;51.306;22.680;2023-02-15T13:21:10;24.10;;;11.70;;
70049;SDS011;57391;51.306;22.680;2023-02-15T13:23:44;24.10;;;12.10;;
70049;SDS011;57391;51.306;22.680;2023-02-15T13:26:20;21.60;;;11.30;;
70049;SDS011;57391;51.306;22.680;2023-02-15T13:28:55;26.80;;;12.30;;
70049;SDS011;57391;51.306;22.680;2023-02-15T13:31:28;22.60;;;12.40;;
70049;SDS011;57391;51.306;22.680;2023-02-15T13:34:29;24.20;;;11.80;;
70049;SDS011;57391;51.306;22.680;2023-02-15T13:37:17;24.80;;;12.00;;
70049;SDS011;57391;51.306;22.680;2023-02-15T13:46:24;26.40;;;12.80;;
70049;SDS011;57391;51.306;22.680;2023-02-15T13:52:34;25.30;;;12.50;;
70049;SDS011;57391;51.306;22.680;2023-02-15T13:55:30;26.10;;;13.00;;
70049;SDS011;57391;51.306;22.680;2023-02-15T14:01:17;24.80;;;13.20;;
70049;SDS011;57391;51.306;22.680;2023-02-15T14:12:01;23.40;;;10.80;;
70049;SDS011;57391;51.306;22.680;2023-02-15T14:20:06;25.20;;;12.00;;
70049;SDS011;57391;51.306;22.680;2023-02-15T14:23:16;29.10;;;14.00;;
70049;SDS011;57391;51.306;22.680;2023-02-15T14:26:16;23.30;;;11.30;;
70049;SDS011;57391;51.306;22.680;2023-02-15T14:31:56;26.90;;;12.30;;
70049;SDS011;57391;51.306;22.680;2023-02-15T14:40:22;25.30;;;13.30;;
70049;SDS011;57391;51.306;22.680;2023-02-15T14:46:30;26.50;;;12.50;;
70049;SDS011;57391;51.306;22.680;2023-02-15T14:49:30;23.80;;;11.30;;
70049;SDS011;57391;51.306;22.680;2023-02-15T14:52:08;24.20;;;12.00;;
70049;SDS011;57391;51.306;22.680;2023-02-15T15:03:00;29.20;;;14.20;;
70049;SDS011;57391;51.306;22.680;2023-02-15T15:05:18;36.50;;;17.90;;
70049;SDS011;57391;51.306;22.680;2023-02-15T15:07:56;34.40;;;16.50;;
70049;SDS011;57391;51.306;22.680;2023-02-15T15:12:56;42.30;;;17.50;;
70049;SDS011;57391;51.306;22.680;2023-02-15T15:25:51;34.50;;;16.50;;
70049;SDS011;57391;51.306;22.680;2023-02-15T15:33:58;37.10;;;17.00;;
70049;SDS011;57391;51.306;22.680;2023-02-15T15:45:59;47.80;;;20.90;;
70049;SDS011;57391;51.306;22.680;2023-02-15T15:48:38;47.70;;;22.00;;
70049;SDS011;57391;51.306;22.680;2023-02-15T15:51:19;50.70;;;22.70;;
70049;SDS011;57391;51.306;22.680;2023-02-15T15:53:51;51.40;;;23.10;;
70049;SDS011;57391;51.306;22.680;2023-02-15T15:56:26;49.00;;;22.80;;
70049;SDS011;57391;51.306;22.680;2023-02-15T15:59:00;49.00;;;21.90;;
70049;SDS011;57391;51.306;22.680;2023-02-15T16:01:39;53.70;;;23.40;;
70049;SDS011;57391;51.306;22.680;2023-02-15T16:04:14;53.00;;;23.60;;
70049;SDS011;57391;51.306;22.680;2023-02-15T16:06:53;44.60;;;19.90;;
70049;SDS011;57391;51.306;22.680;2023-02-15T16:09:24;61.10;;;29.60;;
70049;SDS011;57391;51.306;22.680;2023-02-15T16:11:57;63.80;;;35.10;;
70049;SDS011;57391;51.306;22.680;2023-02-15T16:14:39;56.60;;;28.80;;
70049;SDS011;57391;51.306;22.680;2023-02-15T16:17:14;51.10;;;25.60;;
70049;SDS011;57391;51.306;22.680;2023-02-15T16:19:46;50.40;;;24.40;;
70049;SDS011;57391;51.306;22.680;2023-02-15T16:22:16;54.60;;;26.50;;
70049;SDS011;57391;51.306;22.680;2023-02-15T16:25:13;59.70;;;28.20;;
70049;SDS011;57391;51.306;22.680;2023-02-15T16:27:47;69.40;;;30.80;;
70049;SDS011;57391;51.306;22.680;2023-02-15T16:30:31;71.60;;;31.20;;
70049;SDS011;57391;51.306;22.680;2023-02-15T16:33:12;76.50;;;32.60;;
70049;SDS011;57391;51.306;22.680;2023-02-15T16:35:57;78.50;;;32.20;;
70049;SDS011;57391;51.306;22.680;2023-02-15T16:41:16;93.60;;;35.30;;
70049;SDS011;57391;51.306;22.680;2023-02-15T16:43:49;85.50;;;33.90;;
70049;SDS011;57391;51.306;22.680;2023-02-15T16:46:32;74.10;;;29.90;;
70049;SDS011;57391;51.306;22.680;2023-02-15T16:49:14;83.30;;;32.40;;
70049;SDS011;57391;51.306;22.680;2023-02-15T16:51:45;74.90;;;29.30;;
70049;SDS011;57391;51.306;22.680;2023-02-15T16:54:23;77.20;;;33.90;;
70049;SDS011;57391;51.306;22.680;2023-02-15T16:56:52;58.60;;;25.10;;
70049;SDS011;57391;51.306;22.680;2023-02-15T16:59:30;61.40;;;25.20;;
70049;SDS011;57391;51.306;22.680;2023-02-15T17:02:05;74.20;;;27.40;;
70049;SDS011;57391;51.306;22.680;2023-02-15T17:04:39;70.00;;;27.60;;
70049;SDS011;57391;51.306;22.680;2023-02-15T17:07:16;63.10;;;25.50;;
70049;SDS011;57391;51.306;22.680;2023-02-15T17:09:53;144.60;;;49.00;;
70049;SDS011;57391;51.306;22.680;2023-02-15T17:18:03;195.60;;;59.70;;
70049;SDS011;57391;51.306;22.680;2023-02-15T17:20:52;223.50;;;69.70;;
70049;SDS011;57391;51.306;22.680;2023-02-15T17:23:32;175.30;;;57.90;;
70049;SDS011;57391;51.306;22.680;2023-02-15T17:26:12;148.20;;;51.20;;
70049;SDS011;57391;51.306;22.680;2023-02-15T17:28:49;132.20;;;47.80;;
70049;SDS011;57391;51.306;22.680;2023-02-15T17:31:19;136.10;;;47.10;;
70049;SDS011;57391;51.306;22.680;2023-02-15T17:33:48;110.60;;;43.80;;
70049;SDS011;57391;51.306;22.680;2023-02-15T17:36:18;110.80;;;42.80;;
70049;SDS011;57391;51.306;22.680;2023-02-15T17:39:01;111.50;;;43.10;;
70049;SDS011;57391;51.306;22.680;2023-02-15T17:41:34;128.60;;;47.00;;
70049;SDS011;57391;51.306;22.680;2023-02-15T17:44:04;183.70;;;66.80;;
70049;SDS011;57391;51.306;22.680;2023-02-15T17:46:36;212.80;;;76.20;;
70049;SDS011;57391;51.306;22.680;2023-02-15T17:49:03;187.40;;;67.40;;
70049;SDS011;57391;51.306;22.680;2023-02-15T17:51:31;201.30;;;76.60;;
70049;SDS011;57391;51.306;22.680;2023-02-15T17:54:02;181.60;;;65.80;;